createdAt,value
2019-06-07T00:00:39.356Z,99.90
2019-06-07T00:03:00.543Z,99.90
2019-06-07T00:05:28.946Z,99.90
2019-06-07T00:08:07.119Z,99.90
2019-06-07T00:10:36.744Z,99.90
2019-06-07T00:12:58.030Z,99.90
2019-06-07T00:15:29.200Z,99.90
2019-06-07T00:17:56.591Z,99.90
2019-06-07T00:20:25.075Z,99.90
2019-06-07T00:22:53.285Z,99.90
2019-06-07T00:25:24.452Z,99.90
2019-06-07T00:27:51.910Z,99.90
2019-06-07T00:30:40.096Z,99.90
2019-06-07T00:32:51.217Z,99.90
2019-06-07T00:35:22.355Z,99.90
2019-06-07T00:37:50.795Z,99.90
2019-06-07T00:40:31.363Z,99.90
2019-06-07T00:42:51.918Z,99.90
2019-06-07T00:45:22.429Z,99.90
2019-06-07T00:47:50.245Z,99.90
2019-06-07T00:50:21.910Z,99.90
2019-06-07T00:55:22.227Z,99.90
2019-06-07T00:57:49.343Z,99.90
2019-06-07T01:00:22.311Z,99.90
2019-06-07T01:02:49.069Z,99.90
2019-06-07T01:05:20.301Z,99.90
2019-06-07T01:07:47.492Z,99.90
2019-06-07T01:10:46.458Z,99.90
2019-06-07T01:12:47.527Z,99.90
2019-06-07T01:15:22.196Z,99.90
2019-06-07T01:18:33.154Z,99.90
2019-06-07T01:20:23.824Z,99.90
2019-06-07T01:22:49.653Z,99.90
2019-06-07T01:25:18.909Z,99.90
2019-06-07T01:27:48.366Z,99.90
2019-06-07T01:30:18.766Z,99.90
2019-06-07T01:32:47.480Z,99.90
2019-06-07T01:35:16.618Z,99.90
2019-06-07T01:37:44.882Z,99.90
2019-06-07T01:40:14.033Z,99.90
2019-06-07T01:42:42.356Z,99.90
2019-06-07T01:45:11.486Z,99.90
2019-06-07T01:47:39.680Z,99.90
2019-06-07T01:50:08.635Z,99.90
2019-06-07T01:52:37.853Z,99.90
2019-06-07T01:55:06.887Z,99.90
2019-06-07T01:57:47.585Z,99.90
2019-06-07T02:00:06.796Z,99.90
2019-06-07T02:02:35.095Z,99.90
2019-06-07T02:05:05.079Z,99.90
2019-06-07T02:07:33.479Z,99.90
2019-06-07T02:10:02.059Z,99.90
2019-06-07T02:12:40.356Z,99.90
2019-06-07T02:15:03.311Z,99.90
2019-06-07T02:17:33.278Z,99.90
2019-06-07T02:20:01.745Z,99.90
2019-06-07T02:22:32.389Z,99.90
2019-06-07T02:27:32.774Z,99.90
2019-06-07T02:30:35.219Z,99.90
2019-06-07T02:32:34.683Z,99.90
2019-06-07T02:35:01.405Z,99.90
2019-06-07T02:37:35.875Z,99.90
2019-06-07T02:40:00.046Z,99.90
2019-06-07T02:42:34.600Z,99.90
2019-06-07T02:44:58.470Z,99.90
2019-06-07T02:47:30.876Z,99.90
2019-06-07T02:50:28.299Z,99.90
2019-06-07T02:53:11.964Z,99.90
2019-06-07T02:56:33.206Z,99.90
2019-06-07T02:58:11.805Z,99.90
2019-06-07T03:01:06.493Z,99.90
2019-06-07T03:03:18.692Z,99.90
2019-06-07T03:05:47.905Z,99.90
2019-06-07T03:08:17.091Z,99.90
2019-06-07T03:10:48.361Z,99.90
2019-06-07T03:13:19.176Z,99.90
2019-06-07T03:15:50.376Z,99.90
2019-06-07T03:18:41.526Z,99.90
2019-06-07T03:21:15.525Z,99.90
2019-06-07T03:23:45.863Z,99.90
2019-06-07T03:26:17.098Z,99.90
2019-06-07T03:28:45.915Z,99.90
2019-06-07T03:31:14.154Z,99.90
2019-06-07T03:33:45.303Z,99.90
2019-06-07T03:36:23.240Z,99.90
2019-06-07T03:38:42.556Z,99.90
2019-06-07T03:41:10.933Z,99.90
2019-06-07T03:43:40.740Z,99.90
2019-06-07T03:46:09.278Z,99.90
2019-06-07T03:48:41.180Z,99.90
2019-06-07T03:51:23.951Z,99.90
2019-06-07T03:53:40.838Z,99.90
2019-06-07T03:56:08.513Z,99.90
2019-06-07T03:58:48.551Z,99.90
2019-06-07T04:01:07.052Z,99.90
2019-06-07T04:03:43.546Z,99.90
2019-06-07T04:06:05.686Z,99.90
2019-06-07T04:08:38.300Z,99.90
2019-06-07T04:11:04.035Z,99.90
2019-06-07T04:13:36.780Z,99.90
2019-06-07T04:16:05.388Z,99.90
2019-06-07T04:18:35.653Z,99.90
2019-06-07T04:21:03.717Z,99.90
2019-06-07T04:23:35.288Z,99.90
2019-06-07T04:26:02.063Z,99.90
2019-06-07T04:29:24.854Z,99.90
2019-06-07T04:31:00.494Z,99.90
2019-06-07T04:33:28.941Z,99.90
2019-06-07T04:35:58.024Z,99.90
2019-06-07T04:38:29.489Z,99.90
2019-06-07T04:40:58.859Z,99.90
2019-06-07T04:43:31.043Z,99.90
2019-06-07T04:46:01.555Z,99.90
2019-06-07T04:48:33.405Z,99.90
2019-06-07T04:51:04.277Z,99.90
2019-06-07T04:53:35.320Z,99.90
2019-06-07T04:56:02.881Z,99.90
2019-06-07T04:58:31.484Z,99.90
2019-06-07T05:01:03.530Z,99.90
2019-06-07T05:03:35.010Z,99.50
2019-06-07T05:06:01.141Z,98.30
2019-06-07T05:08:31.485Z,96.40
2019-06-07T05:10:59.586Z,98.30
2019-06-07T05:13:27.773Z,96.10
2019-06-07T05:15:56.076Z,95.60
2019-06-07T05:18:24.575Z,95.80
2019-06-07T05:20:52.973Z,95.10
2019-06-07T05:23:59.892Z,95.30
2019-06-07T05:25:51.489Z,93.50
2019-06-07T05:28:19.686Z,94.70
2019-06-07T05:31:03.935Z,92.50
2019-06-07T05:33:18.008Z,90.60
2019-06-07T05:35:46.199Z,92.80
2019-06-07T05:38:14.693Z,90.80
2019-06-07T05:40:48.836Z,92.40
2019-06-07T05:43:35.119Z,90.80
2019-06-07T05:46:04.104Z,91.50
2019-06-07T05:48:32.496Z,89.60
2019-06-07T05:51:19.019Z,89.20
2019-06-07T05:53:47.611Z,87.10
2019-06-07T05:56:16.339Z,88.60
2019-06-07T05:58:44.932Z,86.30
2019-06-07T06:01:42.046Z,86.60
2019-06-07T06:03:46.531Z,86.30
2019-06-07T06:06:14.463Z,85.30
2019-06-07T06:08:45.337Z,82.90
2019-06-07T06:11:12.773Z,84.40
2019-06-07T06:14:03.553Z,83.00
2019-06-07T06:16:11.288Z,82.40
2019-06-07T06:18:40.760Z,84.30
2019-06-07T06:21:19.252Z,87.90
2019-06-07T06:23:42.487Z,87.90
2019-06-07T06:26:11.209Z,87.50
2019-06-07T06:28:40.106Z,88.10
2019-06-07T06:31:08.518Z,86.30
2019-06-07T06:33:37.471Z,86.20
2019-06-07T06:36:06.880Z,85.90
2019-06-07T06:38:35.255Z,84.60
2019-06-07T06:41:15.330Z,83.60
2019-06-07T06:43:33.943Z,84.70
2019-06-07T06:46:02.175Z,84.90
2019-06-07T06:48:30.405Z,84.70
2019-06-07T06:50:58.761Z,81.60
2019-06-07T06:53:26.977Z,79.90
2019-06-07T06:55:55.330Z,78.10
2019-06-07T06:58:23.553Z,76.90
2019-06-07T07:01:05.289Z,75.90
2019-06-07T07:03:57.601Z,74.60
2019-06-07T07:05:55.045Z,74.00
2019-06-07T07:08:24.195Z,74.30
2019-06-07T07:10:54.417Z,73.00
2019-06-07T07:13:22.626Z,76.10
2019-06-07T07:15:57.224Z,74.90
2019-06-07T07:18:21.183Z,74.80
2019-06-07T07:20:51.310Z,73.20
2019-06-07T07:23:19.802Z,72.00
2019-06-07T07:25:55.494Z,69.70
2019-06-07T07:28:18.287Z,70.10
2019-06-07T07:30:52.657Z,69.10
2019-06-07T07:33:19.155Z,64.20
2019-06-07T07:36:11.074Z,66.00
2019-06-07T07:38:18.350Z,63.60
2019-06-07T07:41:14.093Z,59.60
2019-06-07T07:43:16.970Z,56.90
2019-06-07T07:45:50.517Z,57.70
2019-06-07T07:48:18.635Z,61.60
2019-06-07T07:50:49.909Z,61.10
2019-06-07T07:53:16.994Z,61.50
2019-06-07T07:55:49.483Z,58.50
2019-06-07T07:58:15.396Z,58.00
2019-06-07T08:01:00.152Z,58.20
2019-06-07T08:03:13.846Z,55.60
2019-06-07T08:05:43.475Z,55.00
2019-06-07T08:08:12.284Z,51.80
2019-06-07T08:10:40.531Z,53.70
2019-06-07T08:13:26.869Z,49.70
2019-06-07T08:15:39.095Z,51.70
2019-06-07T08:18:07.488Z,48.90
2019-06-07T08:20:35.815Z,51.10
2019-06-07T08:23:04.046Z,45.60
2019-06-07T08:25:32.465Z,47.80
2019-06-07T08:28:01.760Z,46.20
2019-06-07T08:33:24.175Z,44.60
2019-06-07T08:36:03.624Z,45.60
2019-06-07T08:38:25.109Z,43.60
2019-06-07T08:40:31.199Z,42.60
2019-06-07T08:43:15.120Z,46.30
2019-06-07T08:45:30.921Z,41.70
2019-06-07T08:48:05.428Z,41.40
2019-06-07T08:50:29.568Z,42.30
2019-06-07T08:53:05.117Z,41.80
2019-06-07T08:55:28.048Z,40.80
2019-06-07T08:58:02.403Z,42.60
2019-06-07T09:00:45.612Z,42.10
2019-06-07T09:02:58.896Z,40.00
2019-06-07T09:05:27.285Z,41.70
2019-06-07T09:08:21.129Z,39.80
2019-06-07T09:10:25.743Z,42.70
2019-06-07T09:12:59.389Z,44.80
2019-06-07T09:15:24.637Z,40.60
2019-06-07T09:18:34.879Z,40.60
2019-06-07T09:20:36.201Z,39.30
2019-06-07T09:22:58.950Z,40.10
2019-06-07T09:25:25.751Z,38.40
2019-06-07T09:27:54.165Z,37.00
2019-06-07T09:30:39.724Z,37.60
2019-06-07T09:33:09.075Z,37.90
2019-06-07T09:35:39.057Z,39.80
2019-06-07T09:38:23.194Z,39.20
2019-06-07T09:40:39.035Z,38.50
2019-06-07T09:43:55.507Z,37.50
2019-06-07T09:45:37.763Z,34.70
2019-06-07T09:48:13.593Z,35.80
2019-06-07T09:50:36.278Z,34.70
2019-06-07T09:53:19.048Z,32.90
2019-06-07T09:55:35.466Z,34.30
2019-06-07T09:58:45.380Z,35.20
2019-06-07T10:00:40.718Z,35.10
2019-06-07T10:03:16.408Z,34.00
2019-06-07T10:05:35.050Z,36.60
2019-06-07T10:08:22.340Z,35.90
2019-06-07T10:13:04.141Z,35.80
2019-06-07T10:15:32.852Z,34.00
2019-06-07T10:18:02.680Z,33.00
2019-06-07T10:20:31.292Z,32.60
2019-06-07T10:22:59.668Z,33.90
2019-06-07T10:25:28.156Z,33.90
2019-06-07T10:27:56.591Z,35.10
2019-06-07T10:30:25.918Z,33.70
2019-06-07T10:32:54.414Z,34.00
2019-06-07T10:35:23.638Z,33.20
2019-06-07T10:37:51.971Z,33.90
2019-06-07T10:40:20.400Z,34.00
2019-06-07T10:42:48.620Z,35.10
2019-06-07T10:45:17.762Z,34.30
2019-06-07T10:47:46.008Z,30.90
2019-06-07T10:50:14.725Z,32.30
2019-06-07T10:52:42.937Z,31.10
2019-06-07T10:55:11.296Z,32.80
2019-06-07T10:57:40.531Z,32.80
2019-06-07T11:00:11.721Z,31.70
2019-06-07T11:02:40.475Z,31.30
2019-06-07T11:05:12.322Z,31.10
2019-06-07T11:07:40.704Z,31.40
2019-06-07T11:10:15.621Z,31.80
2019-06-07T11:12:39.568Z,30.80
2019-06-07T11:15:08.811Z,32.80
2019-06-07T11:17:37.291Z,29.60
2019-06-07T11:20:08.048Z,28.30
2019-06-07T11:22:36.666Z,28.90
2019-06-07T11:25:06.881Z,28.60
2019-06-07T11:27:35.836Z,29.40
2019-06-07T11:30:06.211Z,29.40
2019-06-07T11:32:34.641Z,29.00
2019-06-07T11:35:21.316Z,28.20
2019-06-07T11:37:49.670Z,28.80
2019-06-07T11:40:34.844Z,28.60
2019-06-07T11:42:52.737Z,28.10
2019-06-07T11:45:20.484Z,28.00
2019-06-07T11:47:48.704Z,28.20
2019-06-07T11:50:17.670Z,28.10
2019-06-07T11:52:46.591Z,26.80
2019-06-07T11:55:16.144Z,26.50
2019-06-07T11:57:44.500Z,26.50
2019-06-07T12:00:16.836Z,27.00
2019-06-07T12:02:46.415Z,27.00
2019-06-07T12:05:18.388Z,27.70
2019-06-07T12:07:45.619Z,27.50
2019-06-07T12:10:18.006Z,27.90
2019-06-07T12:12:44.636Z,27.70
2019-06-07T12:15:15.018Z,27.60
2019-06-07T12:17:43.682Z,27.40
2019-06-07T12:20:14.746Z,27.30
2019-06-07T12:22:43.374Z,27.20
2019-06-07T12:25:16.107Z,26.40
2019-06-07T12:27:42.838Z,26.60
2019-06-07T12:30:18.142Z,25.70
2019-06-07T12:32:41.658Z,26.10
2019-06-07T12:35:11.344Z,25.50
2019-06-07T12:37:44.400Z,25.40
2019-06-07T12:40:22.267Z,26.50
2019-06-07T12:42:42.516Z,24.40
2019-06-07T12:45:12.962Z,25.30
2019-06-07T12:47:42.381Z,25.60
2019-06-07T12:50:11.307Z,25.50
2019-06-07T12:52:39.694Z,25.70
2019-06-07T12:55:08.811Z,26.00
2019-06-07T12:57:37.436Z,26.50
2019-06-07T13:00:07.668Z,25.70
2019-06-07T13:02:36.113Z,24.90
2019-06-07T13:05:06.089Z,25.60
2019-06-07T13:07:34.449Z,25.50
2019-06-07T13:10:03.141Z,26.30
2019-06-07T13:12:31.518Z,24.70
2019-06-07T13:14:59.839Z,25.40
2019-06-07T13:17:28.630Z,25.40
2019-06-07T13:19:57.005Z,25.70
2019-06-07T13:22:25.376Z,26.00
2019-06-07T13:24:53.634Z,26.20
2019-06-07T13:27:22.514Z,24.90
2019-06-07T13:29:50.897Z,25.30
2019-06-07T13:32:19.578Z,24.80
2019-06-07T13:34:47.856Z,25.50
2019-06-07T13:37:16.931Z,24.60
2019-06-07T13:39:45.567Z,23.80
2019-06-07T13:42:14.280Z,25.10
2019-06-07T13:44:44.152Z,25.40
2019-06-07T13:47:12.476Z,25.30
2019-06-07T13:49:41.038Z,25.10
2019-06-07T13:52:09.608Z,25.10
2019-06-07T13:54:38.071Z,23.60
2019-06-07T13:57:06.355Z,23.90
2019-06-07T13:59:34.671Z,24.00
2019-06-07T14:02:03.102Z,25.80
2019-06-07T14:04:31.503Z,25.80
2019-06-07T14:06:59.914Z,25.60
2019-06-07T14:09:29.758Z,24.00
2019-06-07T14:11:58.171Z,23.90
2019-06-07T14:14:27.432Z,24.40
2019-06-07T14:16:56.726Z,24.70
2019-06-07T14:19:26.406Z,23.20
2019-06-07T14:21:54.772Z,23.70
2019-06-07T14:24:23.038Z,24.40
2019-06-07T14:27:10.824Z,23.40
2019-06-07T14:29:57.678Z,23.50
2019-06-07T14:32:26.581Z,23.00
2019-06-07T14:34:54.893Z,22.80
2019-06-07T14:37:23.167Z,23.80
2019-06-07T14:39:52.058Z,23.60
2019-06-07T14:42:20.290Z,24.10
2019-06-07T14:44:48.730Z,23.60
2019-06-07T14:47:17.131Z,23.10
2019-06-07T14:49:45.482Z,24.80
2019-06-07T14:52:13.723Z,25.30
2019-06-07T14:54:42.031Z,23.80
2019-06-07T14:57:10.264Z,23.40
2019-06-07T14:59:39.479Z,24.00
2019-06-07T15:02:07.951Z,23.80
2019-06-07T15:04:41.187Z,23.70
2019-06-07T15:07:13.271Z,24.20
2019-06-07T15:09:41.892Z,23.50
2019-06-07T15:12:24.116Z,23.70
2019-06-07T15:14:40.860Z,24.20
2019-06-07T15:17:09.101Z,23.60
2019-06-07T15:19:37.362Z,22.80
2019-06-07T15:22:05.704Z,22.90
2019-06-07T15:24:37.108Z,23.80
2019-06-07T15:27:04.373Z,24.80
2019-06-07T15:29:33.790Z,24.50
2019-06-07T15:32:02.363Z,25.10
2019-06-07T15:34:32.287Z,25.80
2019-06-07T15:37:00.699Z,26.00
2019-06-07T15:39:30.207Z,26.50
2019-06-07T15:41:58.759Z,27.20
2019-06-07T15:44:27.084Z,27.70
2019-06-07T15:46:55.526Z,27.20
2019-06-07T15:49:23.869Z,27.30
2019-06-07T15:51:52.398Z,27.80
2019-06-07T15:54:20.668Z,27.70
2019-06-07T15:56:48.996Z,27.80
2019-06-07T15:59:17.306Z,27.80
2019-06-07T16:01:45.589Z,27.30
2019-06-07T16:04:13.956Z,27.90
2019-06-07T16:06:43.519Z,27.80
2019-06-07T16:09:12.123Z,28.70
2019-06-07T16:11:41.447Z,28.50
2019-06-07T16:14:10.292Z,28.20
2019-06-07T16:16:38.990Z,27.50
2019-06-07T16:19:07.302Z,28.00
2019-06-07T16:21:37.364Z,28.70
2019-06-07T16:24:05.798Z,29.10
2019-06-07T16:26:34.305Z,29.20
2019-06-07T16:29:03.171Z,29.00
2019-06-07T16:31:31.657Z,29.40
2019-06-07T16:33:59.976Z,29.90
2019-06-07T16:36:28.206Z,29.30
2019-06-07T16:38:56.796Z,29.60
2019-06-07T16:41:25.161Z,29.60
2019-06-07T16:43:54.528Z,29.90
2019-06-07T16:46:23.165Z,29.80
2019-06-07T16:48:51.394Z,30.50
2019-06-07T16:51:19.837Z,30.30
2019-06-07T16:53:48.594Z,31.20
2019-06-07T16:56:16.935Z,30.70
2019-06-07T16:58:51.014Z,31.10
2019-06-07T17:01:19.457Z,31.90
2019-06-07T17:03:47.715Z,30.50
2019-06-07T17:06:16.141Z,31.40
2019-06-07T17:08:44.597Z,30.40
2019-06-07T17:11:12.861Z,30.20
2019-06-07T17:13:42.334Z,30.00
2019-06-07T17:16:10.693Z,29.60
2019-06-07T17:18:39.175Z,29.90
2019-06-07T17:21:07.466Z,29.50
2019-06-07T17:23:35.803Z,29.40
2019-06-07T17:26:04.246Z,29.10
2019-06-07T17:28:32.722Z,28.60
2019-06-07T17:31:00.939Z,28.60
2019-06-07T17:33:29.502Z,28.80
2019-06-07T17:35:57.997Z,29.20
2019-06-07T17:38:26.338Z,29.20
2019-06-07T17:41:12.779Z,28.90
2019-06-07T17:43:55.156Z,28.80
2019-06-07T17:46:11.391Z,29.30
2019-06-07T17:48:39.906Z,29.60
2019-06-07T17:51:08.223Z,29.40
2019-06-07T17:53:36.561Z,29.80
2019-06-07T17:56:04.951Z,30.00
2019-06-07T17:58:33.188Z,30.10
2019-06-07T18:01:01.621Z,29.80
2019-06-07T18:03:30.058Z,29.70
2019-06-07T18:06:00.591Z,29.50
2019-06-07T18:08:29.951Z,30.00
2019-06-07T18:10:58.336Z,29.50
2019-06-07T18:13:26.685Z,29.90
2019-06-07T18:15:59.273Z,29.70
2019-06-07T18:18:25.280Z,29.80
2019-06-07T18:20:53.661Z,29.90
2019-06-07T18:23:21.945Z,30.00
2019-06-07T18:25:50.535Z,29.50
2019-06-07T18:28:18.966Z,29.80
2019-06-07T18:30:48.677Z,29.90
2019-06-07T18:33:17.136Z,30.00
2019-06-07T18:35:46.859Z,30.30
2019-06-07T18:38:15.347Z,29.70
2019-06-07T18:40:43.646Z,29.70
2019-06-07T18:43:12.006Z,29.70
2019-06-07T18:45:40.512Z,29.80
2019-06-07T18:48:08.894Z,30.00
2019-06-07T18:50:37.376Z,29.90
2019-06-07T18:53:23.645Z,29.80
2019-06-07T18:55:52.276Z,29.60
2019-06-07T18:58:20.956Z,29.60
2019-06-07T19:00:49.926Z,29.80
2019-06-07T19:03:18.613Z,29.40
2019-06-07T19:05:48.048Z,29.30
2019-06-07T19:08:16.600Z,28.90
2019-06-07T19:10:45.962Z,29.10
2019-06-07T19:13:14.501Z,29.20
2019-06-07T19:15:43.505Z,29.20
2019-06-07T19:18:11.779Z,29.30
2019-06-07T19:20:40.129Z,29.20
2019-06-07T19:23:08.638Z,29.20
2019-06-07T19:25:36.868Z,29.00
2019-06-07T19:28:05.266Z,29.10
2019-06-07T19:30:33.920Z,29.10
2019-06-07T19:33:02.196Z,29.00
2019-06-07T19:35:30.600Z,29.00
2019-06-07T19:37:59.960Z,29.10
2019-06-07T19:40:28.418Z,29.40
2019-06-07T19:42:56.672Z,29.30
2019-06-07T19:45:30.169Z,29.30
2019-06-07T19:47:56.550Z,29.20
2019-06-07T19:50:26.128Z,29.10
2019-06-07T19:52:54.998Z,29.20
2019-06-07T19:55:23.326Z,29.20
2019-06-07T19:57:51.737Z,29.40
2019-06-07T20:00:20.459Z,29.50
2019-06-07T20:02:48.877Z,29.60
2019-06-07T20:05:20.177Z,29.40
2019-06-07T20:07:48.759Z,29.60
2019-06-07T20:10:17.635Z,29.50
2019-06-07T20:12:46.047Z,29.90
2019-06-07T20:15:27.831Z,30.20
2019-06-07T20:17:45.297Z,30.50
2019-06-07T20:20:13.668Z,31.40
2019-06-07T20:22:42.114Z,31.20
2019-06-07T20:25:11.373Z,30.60
2019-06-07T20:27:59.462Z,30.50
2019-06-07T20:30:28.180Z,30.90
2019-06-07T20:32:57.669Z,30.60
2019-06-07T20:35:26.219Z,30.40
2019-06-07T20:37:54.673Z,30.50
2019-06-07T20:40:24.860Z,30.60
2019-06-07T20:42:53.233Z,30.80
2019-06-07T20:45:33.296Z,31.10
2019-06-07T20:47:52.289Z,30.90
2019-06-07T20:50:20.526Z,31.00
2019-06-07T20:52:49.007Z,31.80
2019-06-07T20:55:17.666Z,32.00
2019-06-07T20:57:46.006Z,32.00
2019-06-07T21:00:21.387Z,32.00
2019-06-07T21:02:44.833Z,32.60
2019-06-07T21:05:13.405Z,33.10
2019-06-07T21:07:41.784Z,33.30
2019-06-07T21:10:10.856Z,33.50
2019-06-07T21:12:39.373Z,33.60
2019-06-07T21:15:12.114Z,33.70
2019-06-07T21:17:38.533Z,33.70
2019-06-07T21:20:09.905Z,33.00
2019-06-07T21:22:37.662Z,32.60
2019-06-07T21:25:07.308Z,32.30
2019-06-07T21:27:35.826Z,32.20
2019-06-07T21:30:05.203Z,32.50
2019-06-07T21:32:33.761Z,33.20
2019-06-07T21:35:02.147Z,33.50
2019-06-07T21:37:30.628Z,33.00
2019-06-07T21:39:58.911Z,32.90
2019-06-07T21:42:27.246Z,32.70
2019-06-07T21:44:55.566Z,32.40
2019-06-07T21:47:24.017Z,32.90
2019-06-07T21:49:52.326Z,33.60
2019-06-07T21:52:20.678Z,33.90
2019-06-07T21:54:49.003Z,33.80
2019-06-07T21:57:17.635Z,33.00
2019-06-07T21:59:45.973Z,33.00
2019-06-07T22:02:14.654Z,34.90
2019-06-07T22:04:43.973Z,38.10
2019-06-07T22:07:13.585Z,39.80
2019-06-07T22:09:42.231Z,41.40
2019-06-07T22:12:10.565Z,42.80
2019-06-07T22:14:38.772Z,42.40
2019-06-07T22:17:08.180Z,44.40
2019-06-07T22:19:36.476Z,49.90
2019-06-07T22:22:22.593Z,52.20
2019-06-07T22:24:50.789Z,53.30
2019-06-07T22:27:19.086Z,52.80
2019-06-07T22:29:47.439Z,52.30
2019-06-07T22:32:15.741Z,51.00
2019-06-07T22:34:43.975Z,49.70
2019-06-07T22:37:15.633Z,49.30
2019-06-07T22:39:42.616Z,47.90
2019-06-07T22:42:13.468Z,49.70
2019-06-07T22:44:41.957Z,51.50
2019-06-07T22:47:10.309Z,50.90
2019-06-07T22:49:38.635Z,49.90
2019-06-07T22:52:09.309Z,50.40
2019-06-07T22:54:37.971Z,51.20
2019-06-07T22:57:16.622Z,51.60
2019-06-07T22:59:45.376Z,52.90
2019-06-07T23:02:14.659Z,53.10
2019-06-07T23:04:42.907Z,53.40
2019-06-07T23:07:11.356Z,54.60
2019-06-07T23:09:39.695Z,55.70
2019-06-07T23:12:09.113Z,57.00
2019-06-07T23:14:37.538Z,58.10
2019-06-07T23:17:05.918Z,54.50
2019-06-07T23:19:34.222Z,43.90
2019-06-07T23:22:02.593Z,43.80
2019-06-07T23:24:30.908Z,46.40
2019-06-07T23:26:59.208Z,44.60
2019-06-07T23:29:27.609Z,47.90
2019-06-07T23:31:55.827Z,51.20
2019-06-07T23:34:24.045Z,52.80
2019-06-07T23:36:52.386Z,55.60
2019-06-07T23:39:22.365Z,56.60
2019-06-07T23:41:50.690Z,58.20
2019-06-07T23:44:19.358Z,58.40
2019-06-07T23:46:47.667Z,58.40
2019-06-07T23:49:15.861Z,59.50
2019-06-07T23:51:44.269Z,59.60
2019-06-07T23:54:13.725Z,61.20
2019-06-07T23:56:41.988Z,60.10
2019-06-07T23:59:10.396Z,60.70
